Time;durP1;ratioP1;P1;durP2;ratioP2;P2;SDS_P1;SDS_P2;PMS_P1;PMS_P2;Temp;Humidity;BMP_temperature;BMP_pressure;BME280_temperature;BME280_humidity;BME280_pressure;Samples;Min_cycle;Max_cycle;Signal;HPM_P1;HPM_P2
2022/04/06 00:00:28;;;;;;;5.65;1.42;;;17.90;99.90;;;;;;5068431;28;20192;-70
2022/04/06 00:02:59;;;;;;;7.75;1.80;;;17.90;99.90;;;;;;5062754;28;21701;-70
2022/04/06 00:05:29;;;;;;;5.40;1.60;;;17.90;99.90;;;;;;5066765;28;20196;-70
2022/04/06 00:08:00;;;;;;;4.32;1.50;;;17.90;99.90;;;;;;5068052;28;20251;-71
2022/04/06 00:10:31;;;;;;;3.00;1.70;;;17.80;99.90;;;;;;5067197;28;20656;-69
2022/04/06 00:13:02;;;;;;;4.32;1.70;;;17.80;99.90;;;;;;5066812;28;20201;-70
2022/04/06 00:15:35;;;;;;;2.50;1.42;;;17.80;99.90;;;;;;5065300;28;20688;-69
2022/04/06 00:18:05;;;;;;;3.55;1.40;;;17.70;99.90;;;;;;5066396;28;20244;-70
2022/04/06 00:20:36;;;;;;;4.00;1.50;;;17.70;99.90;;;;;;5066832;28;20219;-69
2022/04/06 00:23:06;;;;;;;3.80;1.60;;;17.70;99.90;;;;;;5066628;28;20225;-69
2022/04/06 00:25:37;;;;;;;4.63;1.67;;;17.70;99.90;;;;;;5065546;28;20208;-71
2022/04/06 00:28:08;;;;;;;3.17;1.70;;;17.70;99.90;;;;;;5066652;28;20200;-76
2022/04/06 00:30:41;;;;;;;8.32;2.20;;;17.70;99.90;;;;;;5066309;28;20601;-71
2022/04/06 00:33:11;;;;;;;7.13;2.42;;;17.70;99.90;;;;;;5069204;28;20197;-70
2022/04/06 00:35:42;;;;;;;4.53;1.73;;;17.70;99.90;;;;;;5069933;28;20212;-72
2022/04/06 00:38:13;;;;;;;4.18;1.58;;;17.70;99.90;;;;;;5071809;28;20193;-74
2022/04/06 00:40:43;;;;;;;4.40;1.73;;;17.70;99.90;;;;;;5063341;28;20201;-71
2022/04/06 00:43:15;;;;;;;4.43;1.80;;;17.70;99.90;;;;;;5070171;28;20660;-70
2022/04/06 00:45:47;;;;;;;5.90;1.98;;;17.70;99.90;;;;;;5071713;28;20196;-70
2022/04/06 00:48:18;;;;;;;4.47;1.90;;;17.70;99.90;;;;;;5072169;28;20209;-70
2022/04/06 00:50:49;;;;;;;4.10;1.60;;;17.60;99.90;;;;;;5064011;28;20235;-71
2022/04/06 00:53:20;;;;;;;2.88;1.83;;;17.60;99.90;;;;;;5071653;28;20238;-71
2022/04/06 00:55:51;;;;;;;5.72;1.70;;;17.60;99.90;;;;;;5068389;28;20217;-71
2022/04/06 00:58:22;;;;;;;2.78;1.73;;;17.60;99.90;;;;;;5067213;28;20713;-70
2022/04/06 01:00:54;;;;;;;4.65;1.95;;;17.60;99.90;;;;;;5067570;28;20197;-70
2022/04/06 01:03:25;;;;;;;5.22;1.70;;;17.70;99.90;;;;;;5066659;28;20660;-70
2022/04/06 01:05:56;;;;;;;5.88;2.00;;;17.60;99.90;;;;;;5067176;28;20274;-70
2022/04/06 01:08:27;;;;;;;3.63;1.80;;;17.70;99.90;;;;;;5065281;28;20193;-69
2022/04/06 01:10:58;;;;;;;6.65;3.00;;;17.70;99.90;;;;;;5064678;28;20571;-74
2022/04/06 01:13:30;;;;;;;6.05;1.58;;;17.70;99.90;;;;;;5066980;28;20192;-72
2022/04/06 01:16:02;;;;;;;4.57;1.92;;;17.80;99.90;;;;;;5065840;28;20273;-71
2022/04/06 01:18:36;;;;;;;5.43;1.70;;;17.80;99.90;;;;;;5067466;28;20212;-72
2022/04/06 01:21:07;;;;;;;4.72;1.33;;;17.80;99.90;;;;;;5064463;28;20284;-69
2022/04/06 01:23:39;;;;;;;5.03;1.45;;;17.80;99.90;;;;;;5064345;28;20224;-71
2022/04/06 01:26:10;;;;;;;2.22;1.40;;;17.80;99.90;;;;;;5062253;28;20596;-69
2022/04/06 01:28:41;;;;;;;2.85;1.10;;;17.80;99.90;;;;;;5066928;28;20203;-71
2022/04/06 01:31:12;;;;;;;2.97;1.23;;;17.80;99.90;;;;;;5068733;28;20262;-70
2022/04/06 01:33:43;;;;;;;3.08;1.10;;;17.90;99.90;;;;;;5066278;28;20201;-72
2022/04/06 01:36:14;;;;;;;5.32;1.13;;;17.80;99.90;;;;;;5067389;28;20217;-70
2022/04/06 01:38:47;;;;;;;2.45;1.23;;;17.80;99.90;;;;;;5066398;28;20201;-70
2022/04/06 01:41:17;;;;;;;7.43;1.50;;;17.80;99.90;;;;;;5060894;28;20656;-74
2022/04/06 01:43:48;;;;;;;2.10;1.25;;;17.80;99.90;;;;;;5068074;28;20197;-74
2022/04/06 01:46:19;;;;;;;3.80;1.40;;;17.80;99.90;;;;;;5065636;28;20230;-74
2022/04/06 01:54:21;;;;;;;5.40;1.60;;;17.80;99.90;;;;;;5068239;28;20208;-72
2022/04/06 01:56:52;;;;;;;2.67;0.93;;;17.80;99.90;;;;;;5061760;28;20223;-72
2022/04/06 01:59:23;;;;;;;3.72;0.90;;;17.80;99.90;;;;;;5064454;28;20193;-73
2022/04/06 02:01:56;;;;;;;5.50;1.13;;;17.90;99.90;;;;;;5063754;28;20280;-72
2022/04/06 02:04:26;;;;;;;4.55;0.93;;;17.80;99.90;;;;;;5071207;28;20250;-73
2022/04/06 02:06:57;;;;;;;4.50;0.90;;;17.90;99.90;;;;;;5059356;28;20224;-71
2022/04/06 02:09:30;;;;;;;2.70;0.90;;;17.90;99.90;;;;;;5060765;28;20566;-71
2022/04/06 02:12:01;;;;;;;3.67;0.90;;;18.00;99.90;;;;;;5067517;28;21259;-71
2022/04/06 02:14:32;;;;;;;3.25;0.88;;;18.00;99.90;;;;;;5071627;28;20188;-72
2022/04/06 02:17:03;;;;;;;2.83;0.90;;;18.00;99.90;;;;;;5071898;28;20217;-71
2022/04/06 02:19:34;;;;;;;4.95;0.82;;;18.00;99.90;;;;;;5059901;28;20202;-73
2022/04/06 02:22:05;;;;;;;1.50;0.63;;;18.00;99.90;;;;;;5065180;28;20266;-72
2022/04/06 02:24:38;;;;;;;1.48;0.80;;;18.00;99.90;;;;;;5067814;28;20224;-74
2022/04/06 02:27:10;;;;;;;1.50;0.85;;;17.90;99.90;;;;;;5070456;28;20200;-72
2022/04/06 02:29:42;;;;;;;2.13;0.93;;;17.90;99.90;;;;;;5066889;28;20215;-73
2022/04/06 02:32:13;;;;;;;2.55;0.95;;;17.80;99.90;;;;;;5069812;28;20189;-72
2022/04/06 02:34:43;;;;;;;2.97;1.13;;;17.70;99.90;;;;;;5069611;28;20246;-72
2022/04/06 02:37:14;;;;;;;2.83;1.20;;;17.60;99.90;;;;;;5068040;28;20695;-71
2022/04/06 02:39:49;;;;;;;2.75;1.25;;;17.50;99.90;;;;;;5066127;28;20208;-71
2022/04/06 02:42:20;;;;;;;2.08;1.30;;;17.60;99.90;;;;;;5070996;28;20204;-76
2022/04/06 02:44:50;;;;;;;2.30;1.60;;;17.50;99.90;;;;;;5069824;28;20212;-71
2022/04/06 02:47:21;;;;;;;3.20;1.55;;;17.50;99.90;;;;;;5064677;28;20205;-70
2022/04/06 02:49:52;;;;;;;2.60;1.65;;;17.50;99.90;;;;;;5066634;28;20228;-71
2022/04/06 02:52:22;;;;;;;3.55;1.80;;;17.40;99.90;;;;;;5066510;28;20201;-71
2022/04/06 02:54:55;;;;;;;5.05;1.90;;;17.30;99.90;;;;;;5066406;28;20200;-78
2022/04/06 02:57:26;;;;;;;4.15;2.10;;;17.30;99.90;;;;;;5069242;28;20706;-73
2022/04/06 02:59:56;;;;;;;4.65;1.95;;;17.30;99.90;;;;;;5067202;28;20197;-72
2022/04/06 03:02:27;;;;;;;2.90;1.90;;;17.30;99.90;;;;;;5069852;28;20189;-71
2022/04/06 03:04:57;;;;;;;4.63;1.90;;;17.30;99.90;;;;;;5068736;28;20231;-72
2022/04/06 03:07:28;;;;;;;4.63;1.90;;;17.30;99.90;;;;;;5062996;28;20204;-71
2022/04/06 03:10:02;;;;;;;5.45;1.83;;;17.30;99.90;;;;;;5062974;28;20577;-73
2022/04/06 03:12:33;;;;;;;3.38;2.00;;;17.40;99.90;;;;;;5068040;28;20196;-71
2022/04/06 03:15:03;;;;;;;4.30;2.20;;;17.40;99.90;;;;;;5070103;28;20197;-71
2022/04/06 03:17:34;;;;;;;3.88;1.70;;;17.50;99.90;;;;;;5069128;28;20338;-73
2022/04/06 03:20:05;;;;;;;4.05;1.70;;;17.50;99.90;;;;;;5067306;28;20201;-72
2022/04/06 03:22:36;;;;;;;3.85;1.52;;;17.60;99.90;;;;;;5062394;28;20603;-71
2022/04/06 03:25:10;;;;;;;4.70;1.55;;;17.60;99.90;;;;;;5067726;28;20205;-72
2022/04/06 03:27:41;;;;;;;3.97;1.40;;;17.60;99.90;;;;;;5069880;28;20258;-71
2022/04/06 03:30:13;;;;;;;3.45;1.25;;;17.70;99.90;;;;;;5073775;28;20200;-71
2022/04/06 03:32:44;;;;;;;2.65;1.30;;;17.70;99.90;;;;;;5068759;28;20263;-70
2022/04/06 03:35:15;;;;;;;5.75;1.20;;;17.70;99.90;;;;;;5070942;28;20266;-71
2022/04/06 03:37:46;;;;;;;6.05;1.25;;;17.70;99.90;;;;;;5068659;28;20776;-71
2022/04/06 03:40:19;;;;;;;3.13;1.30;;;17.70;99.90;;;;;;5069330;28;20220;-71
2022/04/06 03:42:50;;;;;;;4.50;1.27;;;17.70;99.90;;;;;;5071422;28;20276;-72
2022/04/06 03:45:21;;;;;;;4.65;1.60;;;17.70;99.90;;;;;;5069676;28;20302;-72
2022/04/06 03:47:52;;;;;;;3.67;1.08;;;17.70;99.90;;;;;;5070919;28;20197;-72
2022/04/06 03:50:23;;;;;;;3.15;1.20;;;17.70;99.90;;;;;;5072111;28;20241;-70
2022/04/06 03:52:53;;;;;;;5.68;1.63;;;17.70;99.90;;;;;;5067257;28;20194;-71
2022/04/06 03:55:26;;;;;;;5.30;1.30;;;17.60;99.90;;;;;;5065362;28;20196;-71
2022/04/06 03:57:57;;;;;;;3.85;1.30;;;17.60;99.90;;;;;;5066108;28;20231;-70
2022/04/06 04:00:27;;;;;;;6.57;1.23;;;17.70;99.90;;;;;;5068729;28;20208;-71
2022/04/06 04:02:58;;;;;;;7.32;1.75;;;17.70;99.90;;;;;;5069793;28;20640;-71
2022/04/06 04:05:29;;;;;;;6.57;1.48;;;17.70;99.90;;;;;;5062345;28;20261;-72
2022/04/06 04:07:59;;;;;;;6.72;1.38;;;17.70;99.90;;;;;;5065300;28;20207;-72
2022/04/06 04:10:32;;;;;;;4.30;1.33;;;17.70;99.90;;;;;;5069569;28;20189;-71
2022/04/06 04:13:03;;;;;;;4.40;1.00;;;17.70;99.90;;;;;;5065085;28;20579;-78
2022/04/06 04:15:33;;;;;;;4.28;1.10;;;17.60;99.90;;;;;;5066492;28;20250;-71
2022/04/06 04:18:04;;;;;;;3.83;1.00;;;17.60;99.90;;;;;;5067360;28;20213;-71
2022/04/06 04:20:34;;;;;;;3.80;1.08;;;17.60;99.90;;;;;;5068592;28;20204;-71
2022/04/06 04:23:05;;;;;;;6.15;1.17;;;17.60;99.90;;;;;;5064939;28;20770;-72
2022/04/06 04:25:38;;;;;;;5.90;1.30;;;17.60;99.90;;;;;;5068627;28;20721;-71
2022/04/06 04:28:09;;;;;;;6.15;1.40;;;17.60;99.90;;;;;;5068851;28;20197;-73
2022/04/06 04:30:40;;;;;;;4.55;1.20;;;17.70;99.90;;;;;;5064275;28;20223;-71
2022/04/06 04:33:10;;;;;;;5.05;1.20;;;17.70;99.90;;;;;;5068899;28;20208;-72
2022/04/06 04:35:41;;;;;;;4.82;1.30;;;17.70;99.90;;;;;;5065538;28;20200;-71
2022/04/06 04:38:12;;;;;;;5.13;1.25;;;17.70;99.90;;;;;;5066471;28;20219;-71
2022/04/06 04:40:44;;;;;;;3.67;1.00;;;17.80;99.90;;;;;;5067385;28;20228;-71
2022/04/06 04:43:15;;;;;;;8.27;1.30;;;17.80;99.90;;;;;;5069640;28;20262;-71
2022/04/06 04:45:46;;;;;;;5.55;1.40;;;17.80;99.90;;;;;;5065402;28;20200;-71
2022/04/06 04:48:16;;;;;;;5.35;1.25;;;17.90;99.90;;;;;;5066624;28;20197;-71
2022/04/06 04:50:47;;;;;;;3.83;1.20;;;18.00;99.90;;;;;;5065657;28;20696;-71
2022/04/06 04:53:18;;;;;;;5.45;1.10;;;18.00;99.90;;;;;;5064038;28;20250;-71
2022/04/06 04:55:50;;;;;;;5.13;1.40;;;18.00;99.90;;;;;;5061410;28;20192;-73
2022/04/06 04:58:21;;;;;;;3.83;1.30;;;18.00;99.90;;;;;;5067695;28;20225;-71
2022/04/06 05:00:51;;;;;;;2.97;1.13;;;18.00;99.90;;;;;;5061817;28;20234;-71
2022/04/06 05:03:22;;;;;;;5.57;1.20;;;18.00;99.90;;;;;;5066763;28;20200;-72
2022/04/06 05:05:53;;;;;;;4.30;1.23;;;18.10;99.90;;;;;;5062099;28;20197;-71
2022/04/06 05:08:24;;;;;;;4.45;1.27;;;18.10;99.90;;;;;;5060212;28;20204;-74
2022/04/06 05:10:57;;;;;;;3.60;1.20;;;18.10;99.90;;;;;;5062645;28;20238;-72
2022/04/06 05:13:27;;;;;;;3.63;1.50;;;18.00;99.90;;;;;;5067050;28;20201;-71
2022/04/06 05:15:58;;;;;;;4.72;1.40;;;18.10;99.90;;;;;;5064991;28;20192;-71
2022/04/06 05:18:29;;;;;;;3.17;1.30;;;18.10;99.90;;;;;;5066473;28;20217;-72
2022/04/06 05:21:00;;;;;;;3.55;1.45;;;18.10;99.90;;;;;;5066562;28;20197;-72
2022/04/06 05:23:30;;;;;;;3.58;1.30;;;18.10;99.90;;;;;;5069604;28;20282;-72
2022/04/06 05:26:03;;;;;;;4.45;1.38;;;18.00;99.90;;;;;;5066401;28;20636;-71
2022/04/06 05:28:34;;;;;;;4.07;1.30;;;18.00;99.90;;;;;;5064982;28;20189;-71
2022/04/06 05:31:07;;;;;;;5.13;1.50;;;18.00;99.90;;;;;;5064649;28;20209;-71
2022/04/06 05:33:38;;;;;;;5.95;1.48;;;18.00;99.90;;;;;;5066244;28;20250;-71
2022/04/06 05:36:09;;;;;;;6.07;1.48;;;18.00;99.90;;;;;;5062772;28;20196;-72
2022/04/06 05:38:39;;;;;;;5.10;1.30;;;18.00;99.90;;;;;;5065264;28;20216;-72
2022/04/06 05:41:12;;;;;;;4.30;1.38;;;18.00;99.90;;;;;;5071461;28;20212;-71
2022/04/06 05:43:42;;;;;;;3.55;1.33;;;18.00;99.90;;;;;;5067614;28;20656;-74
2022/04/06 05:46:13;;;;;;;2.67;1.20;;;18.00;99.90;;;;;;5067116;28;20566;-70
2022/04/06 05:48:44;;;;;;;3.30;1.45;;;17.90;99.90;;;;;;5074776;28;20656;-71
2022/04/06 05:51:14;;;;;;;8.13;1.30;;;17.90;99.90;;;;;;5073337;28;20618;-70
2022/04/06 05:53:45;;;;;;;3.92;1.30;;;17.90;99.90;;;;;;5070888;28;20193;-70
2022/04/06 05:56:17;;;;;;;6.72;1.52;;;17.90;99.90;;;;;;5072777;28;20208;-73
2022/04/06 05:58:48;;;;;;;3.25;1.35;;;17.90;99.90;;;;;;5073402;28;20212;-70
2022/04/06 06:01:19;;;;;;;1.90;1.30;;;17.80;99.90;;;;;;5069708;28;20197;-70
2022/04/06 06:03:49;;;;;;;5.38;1.63;;;17.80;99.90;;;;;;5074910;28;20234;-71
2022/04/06 06:06:20;;;;;;;1.67;1.10;;;17.80;99.90;;;;;;5066806;28;20251;-70
2022/04/06 06:08:51;;;;;;;3.97;1.23;;;17.80;99.90;;;;;;5074070;28;20197;-70
2022/04/06 06:11:23;;;;;;;2.33;1.42;;;17.70;99.90;;;;;;5058873;28;20201;-71
2022/04/06 06:13:54;;;;;;;2.95;1.40;;;17.70;99.90;;;;;;5072295;28;20198;-70
2022/04/06 06:16:25;;;;;;;6.60;1.60;;;17.80;99.90;;;;;;5070042;28;20193;-72
2022/04/06 06:18:56;;;;;;;3.85;1.60;;;17.70;99.90;;;;;;5074611;28;20251;-72
2022/04/06 06:21:31;;;;;;;2.00;1.45;;;17.80;99.90;;;;;;5057273;28;20554;-81
2022/04/06 06:24:05;;;;;;;7.72;1.60;;;17.80;99.90;;;;;;5067072;28;20220;-70
2022/04/06 06:26:38;;;;;;;4.95;1.50;;;17.80;99.90;;;;;;5071669;28;20197;-73
2022/04/06 06:29:09;;;;;;;4.35;1.30;;;17.80;99.90;;;;;;5072449;28;20254;-70
2022/04/06 06:31:40;;;;;;;2.50;1.15;;;17.80;99.90;;;;;;5072019;28;20200;-70
2022/04/06 06:34:10;;;;;;;4.50;1.83;;;17.80;99.90;;;;;;5072551;28;20605;-73
2022/04/06 06:36:41;;;;;;;4.13;1.23;;;17.80;99.90;;;;;;5073024;28;20246;-74
2022/04/06 06:39:12;;;;;;;3.15;1.10;;;17.80;99.90;;;;;;5072524;28;20197;-72
2022/04/06 06:41:44;;;;;;;6.68;1.35;;;17.90;99.90;;;;;;5073690;28;20589;-71
2022/04/06 06:44:15;;;;;;;4.75;1.10;;;17.80;99.90;;;;;;5075450;28;20200;-76
2022/04/06 06:46:47;;;;;;;3.65;1.10;;;17.80;99.90;;;;;;5071546;28;20196;-73
2022/04/06 06:49:18;;;;;;;2.95;1.10;;;17.80;99.90;;;;;;5073121;28;20197;-71
2022/04/06 06:51:48;;;;;;;2.83;1.30;;;17.80;99.90;;;;;;5072925;28;20193;-71
2022/04/06 06:54:19;;;;;;;3.72;1.55;;;17.80;99.90;;;;;;5072246;28;20197;-77
2022/04/06 06:56:52;;;;;;;4.53;1.85;;;17.80;99.90;;;;;;5068537;28;20224;-73
2022/04/06 06:59:22;;;;;;;5.55;2.08;;;17.80;99.90;;;;;;5067197;28;20194;-71
2022/04/06 07:01:53;;;;;;;3.55;1.50;;;17.80;99.90;;;;;;5071268;28;20242;-71
2022/04/06 07:04:24;;;;;;;4.80;1.48;;;17.90;99.90;;;;;;5071674;28;20243;-71
2022/04/06 07:06:55;;;;;;;2.97;1.50;;;17.80;99.90;;;;;;5070261;28;20193;-71
2022/04/06 07:09:26;;;;;;;3.75;1.30;;;17.80;99.90;;;;;;5073855;28;20197;-72
2022/04/06 07:11:58;;;;;;;5.00;1.50;;;17.80;99.90;;;;;;5065993;28;20594;-71
2022/04/06 07:14:29;;;;;;;5.28;1.55;;;17.80;99.90;;;;;;5073329;28;20201;-71
2022/04/06 07:16:59;;;;;;;4.13;1.60;;;17.80;99.90;;;;;;5073134;28;20255;-71
2022/04/06 07:19:30;;;;;;;4.63;1.60;;;17.80;99.90;;;;;;5071056;28;20197;-74
2022/04/06 07:22:01;;;;;;;3.83;1.60;;;17.80;99.90;;;;;;5070726;28;20215;-70
2022/04/06 07:24:31;;;;;;;3.33;1.50;;;17.80;99.90;;;;;;5066903;28;20197;-71
2022/04/06 07:27:04;;;;;;;4.93;1.40;;;17.70;99.90;;;;;;5065465;28;20209;-71
2022/04/06 07:29:34;;;;;;;3.17;1.40;;;17.80;99.90;;;;;;5072063;28;20254;-71
2022/04/06 07:32:05;;;;;;;3.45;1.33;;;17.80;99.90;;;;;;5065147;28;20212;-70
2022/04/06 07:34:36;;;;;;;4.05;1.60;;;17.70;99.90;;;;;;5067231;28;20196;-69
2022/04/06 07:37:07;;;;;;;4.45;1.63;;;17.80;99.90;;;;;;5066674;28;20197;-71
2022/04/06 07:39:37;;;;;;;5.40;1.58;;;17.80;99.90;;;;;;5064913;28;20225;-71
2022/04/06 07:42:10;;;;;;;6.65;1.70;;;17.70;99.90;;;;;;5068473;28;20246;-71
2022/04/06 07:44:41;;;;;;;5.25;1.48;;;17.70;99.90;;;;;;5071621;28;20197;-70
2022/04/06 07:47:11;;;;;;;7.75;1.70;;;17.70;99.90;;;;;;5071321;28;20601;-70
2022/04/06 07:49:42;;;;;;;3.33;1.48;;;17.70;99.90;;;;;;5075692;28;20616;-70
2022/04/06 07:52:13;;;;;;;4.18;1.33;;;17.70;99.90;;;;;;5073267;28;20254;-70
2022/04/06 07:54:43;;;;;;;2.88;1.35;;;17.80;99.90;;;;;;5075765;28;20215;-73
2022/04/06 07:57:16;;;;;;;4.50;1.65;;;17.80;99.90;;;;;;5072259;28;20196;-70
2022/04/06 07:59:46;;;;;;;3.22;1.40;;;17.70;99.90;;;;;;5072290;28;20200;-71
2022/04/06 08:02:17;;;;;;;8.35;1.50;;;17.80;99.90;;;;;;5071645;28;20193;-72
2022/04/06 08:04:47;;;;;;;3.72;1.30;;;17.80;99.90;;;;;;5072641;28;20613;-73
2022/04/06 08:07:18;;;;;;;4.80;1.58;;;17.70;99.90;;;;;;5064783;28;20189;-70
2022/04/06 08:09:49;;;;;;;3.45;1.40;;;17.80;99.90;;;;;;5065762;28;20246;-72
2022/04/06 08:12:22;;;;;;;6.40;1.63;;;17.80;99.90;;;;;;5071787;28;20196;-70
2022/04/06 08:14:52;;;;;;;2.97;1.48;;;17.70;99.90;;;;;;5066194;28;20251;-70
2022/04/06 08:17:25;;;;;;;4.88;1.80;;;17.80;99.90;;;;;;5070704;28;20209;-70
2022/04/06 08:19:56;;;;;;;4.53;1.30;;;17.80;99.90;;;;;;5050043;28;20200;-70
2022/04/06 08:22:27;;;;;;;1.92;0.90;;;17.80;99.90;;;;;;5068028;28;20220;-69
2022/04/06 08:24:58;;;;;;;1.58;1.20;;;17.70;99.90;;;;;;5067721;28;20205;-70
2022/04/06 08:27:32;;;;;;;3.13;0.95;;;17.70;99.90;;;;;;5071246;28;20196;-71
2022/04/06 08:30:02;;;;;;;4.57;1.20;;;17.70;99.90;;;;;;5068427;28;20686;-73
2022/04/06 08:32:33;;;;;;;2.08;1.10;;;17.70;99.90;;;;;;5068969;28;20197;-72
2022/04/06 08:35:04;;;;;;;2.28;1.00;;;17.70;99.90;;;;;;5068625;28;20280;-70
2022/04/06 08:37:35;;;;;;;5.43;1.13;;;17.60;99.90;;;;;;5070857;28;20233;-70
2022/04/06 08:40:06;;;;;;;1.92;0.95;;;17.60;99.90;;;;;;5069253;28;20200;-70
2022/04/06 08:42:39;;;;;;;1.30;1.02;;;17.60;99.90;;;;;;5064295;28;20201;-70
2022/04/06 08:45:12;;;;;;;1.35;0.80;;;17.60;99.90;;;;;;5070975;28;20196;-70
2022/04/06 08:47:44;;;;;;;1.77;0.93;;;17.60;99.90;;;;;;5070108;28;20197;-80
2022/04/06 08:50:14;;;;;;;1.48;0.80;;;17.60;99.90;;;;;;5070580;28;20618;-70
2022/04/06 08:52:46;;;;;;;3.58;0.98;;;17.60;99.90;;;;;;5069435;28;20594;-70
2022/04/06 08:55:16;;;;;;;1.48;0.60;;;17.60;99.90;;;;;;5070191;28;20275;-70
2022/04/06 08:57:49;;;;;;;2.40;0.60;;;17.60;99.90;;;;;;5068347;28;20766;-71
2022/04/06 09:00:20;;;;;;;1.25;0.70;;;17.60;99.90;;;;;;5064330;28;20193;-71
2022/04/06 09:02:51;;;;;;;1.77;0.68;;;17.60;99.90;;;;;;5066793;28;20245;-69
2022/04/06 09:05:28;;;;;;;2.08;0.70;;;17.60;99.90;;;;;;5070535;28;20717;-69
2022/04/06 09:08:00;;;;;;;2.65;0.80;;;17.60;99.90;;;;;;5066794;28;20207;-69
2022/04/06 09:10:36;;;;;;;1.52;0.75;;;17.60;99.90;;;;;;5070149;28;20250;-70
2022/04/06 09:13:18;;;;;;;1.27;0.70;;;17.60;99.90;;;;;;5071179;28;20192;-70
2022/04/06 09:15:50;;;;;;;0.60;0.60;;;17.60;99.90;;;;;;5077146;28;20196;-70
2022/04/06 09:18:24;;;;;;;3.65;0.90;;;17.60;99.90;;;;;;5070210;28;20224;-69
2022/04/06 09:21:02;;;;;;;1.77;0.70;;;17.60;99.90;;;;;;5072655;28;20188;-69
2022/04/06 09:23:34;;;;;;;3.35;0.90;;;17.60;99.90;;;;;;5068378;28;20224;-69
2022/04/06 09:26:08;;;;;;;3.25;0.80;;;17.60;99.90;;;;;;5073564;28;20192;-70
2022/04/06 09:28:44;;;;;;;2.35;0.90;;;17.60;99.90;;;;;;5069130;28;20193;-69
2022/04/06 09:31:17;;;;;;;3.72;0.98;;;17.60;99.90;;;;;;5073554;28;20200;-74
2022/04/06 09:34:02;;;;;;;1.98;0.90;;;17.60;99.90;;;;;;5076861;28;20196;-69
2022/04/06 09:36:34;;;;;;;2.75;1.00;;;17.60;99.90;;;;;;5072847;28;20287;-69
2022/04/06 09:39:05;;;;;;;1.80;0.90;;;17.60;99.90;;;;;;5071999;28;20303;-69
2022/04/06 09:41:55;;;;;;;2.10;1.00;;;17.60;99.90;;;;;;5076079;28;20548;-68
2022/04/06 09:50:19;;;;;;;2.70;1.00;;;17.60;99.90;;;;;;5077833;28;20240;-69
2022/04/06 09:52:53;;;;;;;1.65;1.00;;;17.60;99.90;;;;;;5074006;28;20197;-69
2022/04/06 09:55:26;;;;;;;1.02;0.90;;;17.60;99.90;;;;;;5073589;28;20196;-70
2022/04/06 09:57:59;;;;;;;3.92;0.90;;;17.70;99.90;;;;;;5073276;28;20204;-70
2022/04/06 10:00:32;;;;;;;3.53;0.85;;;17.70;99.90;;;;;;5074682;28;20204;-69
2022/04/06 10:03:09;;;;;;;2.28;1.10;;;17.70;99.90;;;;;;5066383;28;20209;-69
2022/04/06 10:05:42;;;;;;;1.95;1.40;;;17.60;99.90;;;;;;5071374;28;20200;-71
2022/04/06 10:08:13;;;;;;;1.70;1.20;;;17.70;99.90;;;;;;5068146;28;20213;-70
2022/04/06 10:10:45;;;;;;;1.75;1.20;;;17.60;99.90;;;;;;5074100;28;20204;-70
2022/04/06 10:13:16;;;;;;;2.92;1.27;;;17.70;99.90;;;;;;5073842;28;20193;-69
2022/04/06 10:15:48;;;;;;;1.50;1.25;;;17.60;99.90;;;;;;5073509;28;20192;-70
2022/04/06 10:18:20;;;;;;;2.60;1.30;;;17.60;99.90;;;;;;5071769;28;20223;-70
2022/04/06 10:20:56;;;;;;;2.00;1.58;;;17.60;99.90;;;;;;5070889;28;20263;-69
2022/04/06 10:23:43;;;;;;;3.45;1.40;;;17.60;99.90;;;;;;5073708;28;20258;-69
2022/04/06 10:26:24;;;;;;;2.00;1.40;;;17.60;99.90;;;;;;5074472;28;20193;-69
2022/04/06 10:28:55;;;;;;;3.25;1.85;;;17.50;99.90;;;;;;5070752;28;20566;-69
2022/04/06 10:31:31;;;;;;;1.90;1.70;;;17.50;99.90;;;;;;5071015;28;20247;-69
2022/04/06 10:34:23;;;;;;;4.00;1.90;;;17.50;99.90;;;;;;5071653;28;20211;-69
2022/04/06 10:37:11;;;;;;;3.80;1.80;;;17.50;99.90;;;;;;5075899;28;20189;-69
2022/04/06 10:40:02;;;;;;;4.57;1.90;;;17.50;99.90;;;;;;5069436;28;20215;-69
2022/04/06 10:42:42;;;;;;;3.55;2.00;;;17.50;99.90;;;;;;5059164;28;20193;-69
2022/04/06 10:45:46;;;;;;;1.77;1.50;;;17.50;99.90;;;;;;5073186;28;20192;-69
2022/04/06 10:48:20;;;;;;;4.13;1.92;;;17.50;99.90;;;;;;5067022;28;20644;-69
2022/04/06 10:50:51;;;;;;;2.78;1.88;;;17.50;99.90;;;;;;5071208;28;20236;-70
2022/04/06 10:53:32;;;;;;;3.78;1.70;;;17.50;99.90;;;;;;5070647;28;20272;-70
2022/04/06 10:56:06;;;;;;;3.22;1.90;;;17.50;99.90;;;;;;5069796;28;20701;-71
2022/04/06 10:59:10;;;;;;;5.07;1.80;;;17.50;99.90;;;;;;5073186;28;20295;-69
2022/04/06 11:01:45;;;;;;;3.47;1.92;;;17.40;99.90;;;;;;5065728;28;20606;-69
2022/04/06 11:04:24;;;;;;;2.85;1.77;;;17.50;99.90;;;;;;5068853;28;20196;-70
2022/04/06 11:07:03;;;;;;;3.00;2.08;;;17.40;99.90;;;;;;5067211;28;20251;-69
2022/04/06 11:12:24;;;;;;;2.70;1.75;;;17.50;99.90;;;;;;5073837;28;20579;-69
2022/04/06 11:15:21;;;;;;;2.47;1.60;;;17.50;99.90;;;;;;5061984;28;20222;-69
2022/04/06 11:17:53;;;;;;;3.10;1.73;;;17.50;99.90;;;;;;5067228;28;20311;-69
2022/04/06 11:20:35;;;;;;;2.17;1.60;;;17.50;99.90;;;;;;5067493;28;20588;-70
2022/04/06 11:23:07;;;;;;;3.67;1.83;;;17.50;99.90;;;;;;5066833;28;20224;-69
2022/04/06 11:25:38;;;;;;;1.83;1.50;;;17.50;99.90;;;;;;5066908;28;20193;-69
2022/04/06 11:28:15;;;;;;;3.42;1.52;;;17.40;99.90;;;;;;5066075;28;20197;-69
2022/04/06 11:30:47;;;;;;;2.58;1.70;;;17.50;99.90;;;;;;5071381;28;20729;-69
2022/04/06 11:33:18;;;;;;;3.47;1.70;;;17.50;99.90;;;;;;5071507;28;20200;-69
2022/04/06 11:35:51;;;;;;;4.05;1.80;;;17.50;99.90;;;;;;5064449;28;20211;-69
2022/04/06 11:38:21;;;;;;;3.08;1.63;;;17.50;99.90;;;;;;5068299;28;20783;-69
2022/04/06 11:40:58;;;;;;;2.28;1.50;;;17.50;99.90;;;;;;5065753;28;20622;-69
2022/04/06 11:43:30;;;;;;;3.58;1.65;;;17.50;99.90;;;;;;5067997;28;20196;-69
2022/04/06 11:46:02;;;;;;;2.45;1.58;;;17.50;99.90;;;;;;5066269;28;20893;-69
2022/04/06 11:48:42;;;;;;;2.42;2.05;;;17.50;99.90;;;;;;5066252;28;20201;-69
2022/04/06 11:51:18;;;;;;;2.00;1.80;;;17.50;99.90;;;;;;5066247;28;20232;-69
2022/04/06 11:53:49;;;;;;;3.55;1.80;;;17.50;99.90;;;;;;5066541;28;20193;-69
2022/04/06 11:56:26;;;;;;;4.68;1.92;;;17.50;99.90;;;;;;5067664;28;20652;-71
2022/04/06 11:58:57;;;;;;;3.55;1.70;;;17.50;99.90;;;;;;5069846;28;20707;-71
2022/04/06 12:01:30;;;;;;;4.05;1.80;;;17.50;99.90;;;;;;5066848;28;20292;-71
2022/04/06 12:04:00;;;;;;;3.63;1.98;;;17.50;99.90;;;;;;5065647;28;20632;-69
2022/04/06 12:06:37;;;;;;;3.03;1.80;;;17.60;99.90;;;;;;5066163;28;20197;-70
2022/04/06 12:09:08;;;;;;;5.28;1.80;;;17.60;99.90;;;;;;5067005;28;20245;-70
2022/04/06 12:11:40;;;;;;;2.05;1.50;;;17.60;99.90;;;;;;5061803;28;20207;-70
2022/04/06 12:14:12;;;;;;;2.63;1.63;;;17.60;99.90;;;;;;5062075;28;20250;-69
2022/04/06 12:16:44;;;;;;;3.08;1.70;;;17.60;99.90;;;;;;5067813;28;20204;-70
2022/04/06 12:19:16;;;;;;;2.17;1.80;;;17.60;99.90;;;;;;5069043;28;20579;-69
2022/04/06 12:21:49;;;;;;;3.05;1.60;;;17.60;99.90;;;;;;5064904;28;20197;-69
2022/04/06 12:24:20;;;;;;;3.45;1.70;;;17.60;99.90;;;;;;5067960;28;20201;-68
2022/04/06 12:26:54;;;;;;;2.58;1.83;;;17.60;99.90;;;;;;5067616;28;20279;-69
2022/04/06 12:29:25;;;;;;;3.03;1.80;;;17.60;99.90;;;;;;5069848;28;20223;-69
2022/04/06 12:31:56;;;;;;;5.10;2.30;;;17.60;99.90;;;;;;5069748;28;20205;-69
2022/04/06 12:34:37;;;;;;;2.88;1.88;;;17.60;99.90;;;;;;5069867;28;20255;-69
2022/04/06 12:39:59;;;;;;;3.40;1.98;;;17.60;99.90;;;;;;5066389;28;20239;-69
2022/04/06 12:42:37;;;;;;;3.13;2.00;;;17.70;99.90;;;;;;5069869;28;20287;-69
2022/04/06 12:45:09;;;;;;;2.30;2.00;;;17.70;99.90;;;;;;5065781;28;20203;-71
2022/04/06 12:47:41;;;;;;;3.20;2.03;;;17.70;99.90;;;;;;5065615;28;20226;-71
2022/04/06 12:50:16;;;;;;;3.05;2.10;;;17.70;99.90;;;;;;5067296;28;20225;-74
2022/04/06 12:53:04;;;;;;;3.95;1.83;;;17.70;99.90;;;;;;5065263;28;20192;-71
2022/04/06 12:55:34;;;;;;;3.05;2.20;;;17.70;99.90;;;;;;5061211;28;20200;-70
2022/04/06 12:58:18;;;;;;;3.20;2.08;;;17.70;99.90;;;;;;5062802;28;20201;-70
2022/04/06 13:00:58;;;;;;;3.20;1.90;;;17.70;99.90;;;;;;5061925;28;20212;-71
2022/04/06 13:03:29;;;;;;;2.50;1.98;;;17.70;99.90;;;;;;5066765;28;20193;-79
2022/04/06 13:05:59;;;;;;;2.40;1.80;;;17.70;99.90;;;;;;5070198;28;20238;-76
2022/04/06 13:08:32;;;;;;;4.43;2.05;;;17.70;99.90;;;;;;5061252;28;20254;-75
2022/04/06 13:11:05;;;;;;;5.00;2.40;;;17.70;99.90;;;;;;5062084;28;20208;-73
2022/04/06 13:13:35;;;;;;;5.57;2.58;;;17.80;99.90;;;;;;5065790;28;20550;-72
2022/04/06 13:16:07;;;;;;;5.78;2.55;;;17.80;99.90;;;;;;5065941;28;20211;-75
2022/04/06 13:18:38;;;;;;;3.63;2.70;;;17.80;99.90;;;;;;5067311;28;20598;-75
2022/04/06 13:21:09;;;;;;;5.63;2.63;;;17.80;99.90;;;;;;5063827;28;20216;-74
2022/04/06 13:23:42;;;;;;;6.65;2.78;;;17.80;99.90;;;;;;5061752;28;20224;-72
2022/04/06 13:26:13;;;;;;;4.60;2.17;;;17.80;99.90;;;;;;5069299;28;20204;-71
2022/04/06 13:28:43;;;;;;;3.95;2.08;;;17.80;99.90;;;;;;5067804;28;20686;-78
2022/04/06 13:31:14;;;;;;;5.80;1.98;;;17.90;99.90;;;;;;5065565;28;20216;-72